Roanoke, VA

11:59 AM EDT on April 25, 2015 (GMT -0400)
Roanoke Regional-Woodrum | | Change Station
CLOSE
Current Station
Airport
Location: Roanoke,
Elevation: 1175 ft
Nearby Weather Stations

Elev 1175 ft 37.32 °N, 79.97 °W | Updated 5 minutes ago

Overcast
Overcast
46 °F
Feels Like 44 °F
N
5
Wind Variable Wind from SE

Today
High -- | Low -- °F
--% Chance of Precip.
Yesterday
High -- | Low -- °F
Precip. -- in
6:32 AM 8:03 PM
Waxing Crescent, 47% visible
Pressure 29.94 in
Visibility 9.0 miles
Clouds Overcast 5500 ft
Windchill 44 °F
Dew Point 38 °F
Humidity 73%
Rainfall 0.12 in
Snow Depth Not available.
UV 3 out of 12
Pollen 10.70 out of 12
Air Quality Not available.
Flu Activity Sporadic
METAR KROA 251554Z 14004KT 9SM -RA OVC055 08/03 A2994 RMK AO2 RAB10 SLP137 P0001 T00780033

More Conditions Fewer Conditions

Pressure 29.94 in
Visibility 9.0 miles
Clouds Overcast 5500 ft
Windchill 44 °F
Dew Point 38 °F
Humidity 73%
Rainfall 0.12 in
Snow Depth Not available.
UV 3 out of 12
Pollen 10.70 out of 12
Air Quality Not available.
Flu Activity Sporadic
METAR KROA 251554Z 14004KT 9SM -RA OVC055 08/03 A2994 RMK AO2 RAB10 SLP137 P0001 T00780033

More Conditions Fewer Conditions

10-Day Weather Forecast

Almanac

Astronomy

Apr. 25, 2015 Rise Set
Actual Time
Civil Twilight
Nautical Twilight
Astronomical Twilight
Moon
Length of Visible Light
Length of Day
Tomorrow will be .
, % of the Moon is Illuminated

Today's Extremes

State Highs State Lows

Community

WunderPhotos

Upload Photos

1,816,719 photos uploaded!

WunderBlogs® & News

Nearby

Air Quality

  Air Quality AQ Index Pollutant
Not available.

Snow Depth

Station Depth Elevation

Earthquake Activity

City Distance Mag. Time & Date
Minimum magnitude displayed is 2.5.

Coastal Water Temperatures

Place Temperature

Stations

Nearby Weather Stations

Station Location Temp. Windchill Dew Point Humidity Wind Precip. Elev Updated Type